Time;durP1;ratioP1;P1;durP2;ratioP2;P2;SDS_P1;SDS_P2;PMS_P1;PMS_P2;Temp;Humidity;BMP_temperature;BMP_pressure;BME280_temperature;BME280_humidity;BME280_pressure;Samples;Min_cycle;Max_cycle;Signal;HPM_P1;HPM_P2
2022/10/25 00:01:47;;;;;;;4.33;2.20;;;;;;;12.18;100.00;101090.44;4973730;28;20085;-84
2022/10/25 00:04:13;;;;;;;3.10;1.73;;;;;;;12.18;100.00;101084.41;4972304;28;20026;-84
2022/10/25 00:06:38;;;;;;;3.25;1.42;;;;;;;12.18;100.00;101093.06;4973735;28;20050;-84
2022/10/25 00:09:04;;;;;;;3.37;1.70;;;;;;;12.19;100.00;101088.72;4973278;28;20077;-84
2022/10/25 00:11:30;;;;;;;2.77;1.60;;;;;;;12.18;100.00;101089.59;4972856;28;20027;-84
2022/10/25 00:13:59;;;;;;;2.17;1.55;;;;;;;12.18;100.00;101098.25;4973090;28;20023;-84
2022/10/25 00:16:27;;;;;;;2.08;1.60;;;;;;;12.17;100.00;101096.53;4975012;28;20468;-84
2022/10/25 00:18:52;;;;;;;2.08;1.48;;;;;;;12.17;100.00;101106.09;4976007;28;20117;-84
2022/10/25 00:21:18;;;;;;;1.20;1.10;;;;;;;12.16;100.00;101105.22;4977323;28;20061;-84
2022/10/25 00:23:44;;;;;;;1.83;1.00;;;;;;;12.18;100.00;101105.22;4977175;28;20033;-84
2022/10/25 00:26:10;;;;;;;3.47;1.50;;;;;;;12.18;100.00;101103.47;4975701;28;20035;-84
2022/10/25 00:28:36;;;;;;;2.95;1.70;;;;;;;12.18;100.00;101106.06;4976839;28;20039;-84
2022/10/25 00:31:04;;;;;;;1.70;1.50;;;;;;;12.19;100.00;101107.78;4976722;28;20113;-84
2022/10/25 00:33:31;;;;;;;2.72;1.30;;;;;;;12.22;100.00;101100.81;4976401;28;20026;-84
2022/10/25 00:36:05;;;;;;;2.08;1.38;;;;;;;12.23;100.00;101105.13;4976316;28;20417;-83
2022/10/25 00:38:30;;;;;;;3.40;1.38;;;;;;;12.24;100.00;101117.25;4976412;28;20062;-84
2022/10/25 00:40:56;;;;;;;2.00;1.23;;;;;;;12.26;100.00;101112.91;4975625;28;20023;-84
2022/10/25 00:43:33;;;;;;;2.83;1.27;;;;;;;12.29;100.00;101112.81;4976828;28;20027;-84
2022/10/25 00:46:02;;;;;;;1.40;1.30;;;;;;;12.31;100.00;101111.94;4976533;28;20038;-84
2022/10/25 00:48:28;;;;;;;2.25;1.38;;;;;;;12.36;100.00;101117.03;4976092;28;20101;-83
2022/10/25 00:50:54;;;;;;;3.80;1.30;;;;;;;12.39;100.00;101116.13;4976204;28;20536;-84
2022/10/25 00:53:24;;;;;;;3.25;1.42;;;;;;;12.41;100.00;101120.41;4976419;28;20344;-85
2022/10/25 00:55:58;;;;;;;5.15;1.90;;;;;;;12.42;100.00;101116.91;4975770;28;20031;-84
2022/10/25 00:58:27;;;;;;;6.53;2.10;;;;;;;12.46;100.00;101115.97;4976104;28;20077;-83
2022/10/25 01:00:52;;;;;;;5.43;1.90;;;;;;;12.48;100.00;101119.41;4975257;28;20037;-84
2022/10/25 01:03:21;;;;;;;2.40;1.60;;;;;;;12.51;100.00;101115.91;4976604;28;20439;-85
2022/10/25 01:05:47;;;;;;;1.92;1.40;;;;;;;12.52;100.00;101115.00;4976546;28;20034;-84
2022/10/25 01:08:14;;;;;;;2.22;1.30;;;;;;;12.54;100.00;101120.19;4975048;28;20094;-84
2022/10/25 01:10:40;;;;;;;2.50;1.40;;;;;;;12.52;100.00;101115.84;4976315;28;20063;-84
2022/10/25 01:13:05;;;;;;;4.27;1.90;;;;;;;12.53;100.00;101119.34;4976153;28;20110;-84
2022/10/25 01:16:04;;;;;;;2.17;1.50;;;;;;;12.52;100.00;101123.66;4975393;28;20475;-84
2022/10/25 01:18:47;;;;;;;2.88;1.65;;;;;;;12.51;100.00;101134.97;4975888;28;20097;-84
2022/10/25 01:21:21;;;;;;;1.63;1.33;;;;;;;12.48;100.00;101134.16;4975649;28;20388;-84
2022/10/25 01:23:52;;;;;;;3.97;1.90;;;;;;;12.44;100.00;101125.56;4975325;28;20034;-84
2022/10/25 01:26:36;;;;;;;4.22;1.80;;;;;;;12.44;100.00;101132.53;4975865;28;20045;-83
2022/10/25 01:29:04;;;;;;;3.58;1.60;;;;;;;12.43;100.00;101134.25;4974604;28;20023;-84
2022/10/25 01:31:39;;;;;;;2.70;1.40;;;;;;;12.42;100.00;101132.53;4975874;28;20035;-84
2022/10/25 01:34:12;;;;;;;2.33;1.42;;;;;;;12.42;100.00;101136.91;4975415;28;20038;-84
2022/10/25 01:36:47;;;;;;;2.95;1.50;;;;;;;12.39;100.00;101137.78;4975082;28;20482;-84
2022/10/25 01:39:19;;;;;;;3.78;1.73;;;;;;;12.39;100.00;101142.16;4975267;28;20046;-84
2022/10/25 01:42:05;;;;;;;1.98;1.45;;;;;;;12.42;100.00;101145.53;4975304;28;20106;-85
2022/10/25 01:44:47;;;;;;;4.15;1.40;;;;;;;12.43;100.00;101144.66;4974875;28;20026;-84
2022/10/25 01:47:19;;;;;;;1.27;1.17;;;;;;;12.45;100.00;101148.09;4975225;28;20464;-84
2022/10/25 01:49:49;;;;;;;1.95;1.13;;;;;;;12.47;100.00;101145.47;4974385;28;20031;-85
2022/10/25 01:52:19;;;;;;;3.25;1.23;;;;;;;12.48;100.00;101142.84;4975272;28;20026;-84
2022/10/25 01:54:44;;;;;;;3.80;1.80;;;;;;;12.47;100.00;101140.25;4975335;28;20041;-84
2022/10/25 01:57:25;;;;;;;2.90;1.40;;;;;;;12.50;100.00;101145.41;4974683;28;20027;-84
2022/10/25 02:00:05;;;;;;;3.30;1.52;;;;;;;12.45;100.00;101148.09;4975122;28;20030;-84
2022/10/25 02:03:10;;;;;;;2.67;1.55;;;;;;;12.45;100.00;101145.50;4975265;28;20027;-84
2022/10/25 02:06:02;;;;;;;2.08;1.33;;;;;;;12.44;100.00;101150.75;4968130;28;20093;-84
2022/10/25 02:08:42;;;;;;;2.63;1.50;;;;;;;12.40;100.00;101152.53;4975097;28;20062;-84
2022/10/25 02:11:23;;;;;;;2.92;1.33;;;;;;;12.38;100.00;101156.03;4973980;28;20479;-84
2022/10/25 02:13:56;;;;;;;4.55;1.60;;;;;;;12.37;100.00;101157.81;4974761;28;20066;-84
2022/10/25 02:16:29;;;;;;;5.28;2.00;;;;;;;12.38;100.00;101156.91;4975091;28;20030;-84
2022/10/25 02:18:59;;;;;;;3.40;1.42;;;;;;;12.40;100.00;101160.34;4974085;28;20547;-84
2022/10/25 02:21:27;;;;;;;3.45;1.60;;;;;;;12.41;100.00;101159.44;4975139;28;20038;-84
2022/10/25 02:23:55;;;;;;;2.05;1.45;;;;;;;12.41;100.00;101159.44;4974821;28;20027;-84
2022/10/25 02:26:21;;;;;;;5.65;1.77;;;;;;;12.40;100.00;101160.34;4974240;28;20082;-84
2022/10/25 02:28:47;;;;;;;6.70;2.10;;;;;;;12.40;100.00;101168.13;4974915;28;20031;-84
2022/10/25 02:31:16;;;;;;;3.53;1.58;;;;;;;12.39;100.00;101162.97;4974676;28;20027;-84
2022/10/25 02:33:46;;;;;;;2.88;1.40;;;;;;;12.38;100.00;101166.47;4973839;28;20113;-84
2022/10/25 02:36:11;;;;;;;4.65;1.65;;;;;;;12.36;100.00;101169.94;4974551;28;20050;-84
2022/10/25 02:38:37;;;;;;;3.60;1.57;;;;;;;12.33;100.00;101169.16;4973803;28;20093;-84
2022/10/25 02:41:04;;;;;;;2.13;1.30;;;;;;;12.31;100.00;101168.31;4973598;28;20031;-84
2022/10/25 02:43:29;;;;;;;2.78;1.40;;;;;;;12.31;100.00;101170.91;4974371;28;20413;-84
2022/10/25 02:45:55;;;;;;;1.70;1.30;;;;;;;12.29;100.00;101181.34;4974280;28;20019;-84
2022/10/25 02:48:20;;;;;;;3.07;1.50;;;;;;;12.27;100.00;101177.06;4974243;28;20022;-83
2022/10/25 02:50:45;;;;;;;2.80;1.50;;;;;;;12.26;100.00;101183.16;4974610;28;20033;-84
2022/10/25 02:53:10;;;;;;;3.77;1.63;;;;;;;12.25;100.00;101168.44;4973731;28;20027;-84
2022/10/25 02:55:37;;;;;;;5.30;2.03;;;;;;;12.23;100.00;101173.63;4974081;28;20034;-83
2022/10/25 02:58:02;;;;;;;3.97;1.77;;;;;;;12.22;100.00;101182.31;4974241;28;20022;-84
2022/10/25 03:00:28;;;;;;;2.83;1.50;;;;;;;12.20;100.00;101179.75;4973566;28;20049;-84
2022/10/25 03:02:53;;;;;;;4.17;1.80;;;;;;;12.22;100.00;101189.28;4974218;28;20110;-84
2022/10/25 03:05:19;;;;;;;2.63;1.50;;;;;;;12.21;100.00;101183.25;4974179;28;20439;-84
2022/10/25 03:07:44;;;;;;;3.10;1.30;;;;;;;12.20;100.00;101190.16;4973685;28;20042;-84
2022/10/25 03:10:09;;;;;;;2.13;1.20;;;;;;;12.19;100.00;101185.84;4974132;28;20030;-84
2022/10/25 03:12:34;;;;;;;1.40;1.20;;;;;;;12.18;100.00;101191.09;4973981;28;20053;-84
2022/10/25 03:15:00;;;;;;;5.27;1.93;;;;;;;12.15;100.00;101191.13;4973258;28;20471;-84
2022/10/25 03:17:25;;;;;;;4.93;1.73;;;;;;;12.16;100.00;101192.84;4973864;28;20097;-84
2022/10/25 03:19:50;;;;;;;4.03;1.60;;;;;;;12.14;100.00;101210.22;4974097;28;20101;-83
2022/10/25 03:22:16;;;;;;;3.60;1.87;;;;;;;12.14;100.00;101205.88;4972918;28;20356;-84
2022/10/25 03:24:41;;;;;;;1.60;1.40;;;;;;;12.16;100.00;101203.25;4973664;28;20034;-84
2022/10/25 03:27:06;;;;;;;2.73;1.53;;;;;;;12.16;100.00;101205.84;4973622;28;20105;-84
2022/10/25 03:29:31;;;;;;;5.37;1.77;;;;;;;12.13;100.00;101208.50;4973120;28;20038;-84
2022/10/25 03:31:57;;;;;;;4.33;1.50;;;;;;;12.10;100.00;101208.56;4973655;28;20435;-84
2022/10/25 03:34:22;;;;;;;4.03;1.67;;;;;;;12.07;100.00;101213.81;4974225;28;20030;-84
2022/10/25 03:36:47;;;;;;;1.90;1.33;;;;;;;12.06;100.00;101223.34;4973089;28;20023;-84
2022/10/25 03:39:13;;;;;;;2.53;1.20;;;;;;;12.04;100.00;101219.94;4973752;28;20062;-84
2022/10/25 03:41:38;;;;;;;1.97;1.40;;;;;;;12.04;100.00;101232.94;4974138;28;20027;-84
2022/10/25 03:44:03;;;;;;;3.17;1.43;;;;;;;12.00;100.00;101236.47;4972753;28;20027;-84
2022/10/25 03:46:29;;;;;;;3.83;1.50;;;;;;;11.97;100.00;101236.47;4973746;28;20502;-84
2022/10/25 03:48:54;;;;;;;3.50;1.50;;;;;;;11.94;100.00;101237.38;4973223;28;20031;-84
2022/10/25 03:51:19;;;;;;;2.53;1.30;;;;;;;11.92;100.00;101233.09;4974740;28;20395;-84
2022/10/25 03:53:45;;;;;;;3.53;1.90;;;;;;;11.88;100.00;101240.94;4977499;28;20034;-84
2022/10/25 03:56:10;;;;;;;3.03;1.80;;;;;;;11.87;100.00;101234.00;4977318;28;20038;-84
2022/10/25 03:58:36;;;;;;;3.40;1.70;;;;;;;11.86;100.00;101240.06;4976673;28;20031;-84
2022/10/25 04:01:01;;;;;;;5.37;1.70;;;;;;;11.86;100.00;101242.69;4977093;28;20081;-84
2022/10/25 04:03:26;;;;;;;1.90;1.70;;;;;;;11.84;100.00;101244.44;4976811;28;20031;-84
2022/10/25 04:05:52;;;;;;;1.67;1.20;;;;;;;11.83;100.00;101245.31;4977011;28;20034;-84
2022/10/25 04:08:17;;;;;;;1.53;1.30;;;;;;;11.84;100.00;101254.00;4977450;28;20039;-84
2022/10/25 04:10:42;;;;;;;2.13;1.53;;;;;;;11.85;100.00;101251.38;4976638;28;20053;-84
2022/10/25 04:13:08;;;;;;;3.70;1.60;;;;;;;11.90;100.00;101252.16;4976858;28;20480;-84
2022/10/25 04:15:33;;;;;;;4.03;1.90;;;;;;;11.88;100.00;101237.44;4977189;28;20045;-84
2022/10/25 04:17:58;;;;;;;2.63;1.87;;;;;;;11.93;100.00;101243.47;4975948;28;20109;-84
2022/10/25 04:20:23;;;;;;;3.03;1.80;;;;;;;11.89;100.00;101245.25;4977262;28;20026;-84
2022/10/25 04:22:55;;;;;;;3.90;1.83;;;;;;;11.89;100.00;101247.84;4977068;28;20122;-84
2022/10/25 04:25:22;;;;;;;4.90;2.00;;;;;;;11.86;100.00;101250.47;4976580;28;20027;-84
2022/10/25 04:27:47;;;;;;;1.60;1.50;;;;;;;11.86;100.00;101258.28;4976965;28;20474;-84
2022/10/25 04:30:13;;;;;;;2.57;1.60;;;;;;;11.84;100.00;101257.44;4976660;28;20050;-84
2022/10/25 04:32:38;;;;;;;2.30;1.50;;;;;;;11.83;100.00;101260.91;4976400;28;20480;-84
2022/10/25 04:35:04;;;;;;;1.70;1.60;;;;;;;11.82;100.00;101258.34;4976741;28;20034;-84
2022/10/25 04:37:29;;;;;;;2.20;1.30;;;;;;;11.82;100.00;101261.78;4976727;28;20373;-84
2022/10/25 04:39:54;;;;;;;3.70;1.63;;;;;;;11.78;100.00;101264.47;4975648;28;20030;-84
2022/10/25 04:42:19;;;;;;;2.70;1.63;;;;;;;11.77;100.00;101261.03;4976760;28;20023;-84
2022/10/25 04:44:45;;;;;;;2.90;1.50;;;;;;;11.74;100.00;101263.66;4976587;28;20505;-84
2022/10/25 04:47:10;;;;;;;2.10;1.80;;;;;;;11.73;100.00;101259.31;4975763;28;20027;-83
2022/10/25 04:49:35;;;;;;;2.63;1.90;;;;;;;11.71;100.00;101261.97;4976804;28;20031;-83
2022/10/25 04:52:01;;;;;;;2.23;1.80;;;;;;;11.72;100.00;101268.00;4976408;28;20035;-83
2022/10/25 04:54:26;;;;;;;3.37;2.00;;;;;;;11.70;100.00;101267.19;4975944;28;20039;-84
2022/10/25 04:56:51;;;;;;;2.70;1.67;;;;;;;11.68;100.00;101267.19;4976303;28;20022;-83
2022/10/25 04:59:16;;;;;;;2.23;1.73;;;;;;;11.66;100.00;101270.69;4976266;28;20023;-84
2022/10/25 05:01:42;;;;;;;2.20;1.87;;;;;;;11.64;100.00;101273.34;4963363;28;20405;-83
2022/10/25 05:04:07;;;;;;;1.80;1.63;;;;;;;11.63;100.00;101273.34;4956623;28;20049;-83
2022/10/25 05:06:32;;;;;;;2.30;1.60;;;;;;;11.60;100.00;101274.25;4956946;29;20023;-83
2022/10/25 05:08:57;;;;;;;2.20;1.83;;;;;;;11.57;100.00;101275.16;4973091;28;20563;-84
2022/10/25 05:11:24;;;;;;;3.57;1.90;;;;;;;11.55;100.00;101279.50;4975987;28;20033;-83
2022/10/25 05:13:49;;;;;;;5.20;2.20;;;;;;;11.55;100.00;101284.69;4974575;28;20030;-83
2022/10/25 05:16:22;;;;;;;2.53;1.77;;;;;;;11.54;100.00;101280.38;4976222;28;20023;-84
2022/10/25 05:18:55;;;;;;;2.03;1.65;;;;;;;11.54;100.00;101287.31;4976268;28;20428;-84
2022/10/25 05:21:25;;;;;;;2.35;1.90;;;;;;;11.53;100.00;101290.81;4975380;28;20023;-83
2022/10/25 05:23:50;;;;;;;3.72;1.90;;;;;;;11.51;100.00;101285.59;4975326;28;20038;-83
2022/10/25 05:26:19;;;;;;;3.00;2.10;;;;;;;11.51;100.00;101292.56;4976184;28;20364;-83
2022/10/25 05:28:47;;;;;;;3.15;1.80;;;;;;;11.49;100.00;101289.94;4975139;28;20019;-83
2022/10/25 05:31:16;;;;;;;2.55;1.50;;;;;;;11.50;100.00;101296.03;4975768;28;20027;-83
2022/10/25 05:33:44;;;;;;;2.40;1.75;;;;;;;11.50;100.00;101299.47;4975735;28;20460;-83
2022/10/25 05:36:10;;;;;;;2.78;1.70;;;;;;;11.51;100.00;101302.94;4974110;28;20225;-84
2022/10/25 05:38:35;;;;;;;1.73;1.60;;;;;;;11.47;100.00;101302.13;4975575;28;20043;-83
2022/10/25 05:41:00;;;;;;;1.90;1.67;;;;;;;11.46;100.00;101310.81;4975665;28;20070;-84
2022/10/25 05:43:26;;;;;;;1.50;1.40;;;;;;;11.45;100.00;101306.47;4974612;28;20483;-83
2022/10/25 05:45:59;;;;;;;3.03;1.73;;;;;;;11.43;100.00;101313.44;4975563;28;20399;-83
2022/10/25 05:48:24;;;;;;;3.50;1.80;;;;;;;11.43;100.00;101314.28;4975866;28;20050;-84
2022/10/25 05:50:50;;;;;;;4.60;2.03;;;;;;;11.43;100.00;101318.63;4974635;28;20476;-83
2022/10/25 05:53:15;;;;;;;3.90;1.70;;;;;;;11.43;100.00;101319.47;4975490;28;20031;-84
2022/10/25 05:55:40;;;;;;;3.23;1.53;;;;;;;11.43;100.00;101316.03;4974240;28;20046;-83
2022/10/25 05:58:05;;;;;;;3.20;1.80;;;;;;;11.43;100.00;101321.22;4974406;28;20043;-83
2022/10/25 06:00:31;;;;;;;2.27;1.70;;;;;;;11.41;100.00;101330.78;4975227;28;20086;-83
2022/10/25 06:03:00;;;;;;;1.97;1.77;;;;;;;11.41;100.00;101326.44;4974370;28;20049;-83
2022/10/25 06:05:25;;;;;;;2.05;1.60;;;;;;;11.41;100.00;101335.97;4975131;28;20468;-84
2022/10/25 06:07:50;;;;;;;2.20;1.70;;;;;;;11.41;100.00;101339.44;4975299;28;20034;-84
2022/10/25 06:10:15;;;;;;;2.80;1.67;;;;;;;11.42;100.00;101332.50;4974663;28;20395;-84
2022/10/25 06:12:41;;;;;;;2.80;1.80;;;;;;;11.41;100.00;101343.78;4975399;28;20033;-84
2022/10/25 06:15:07;;;;;;;1.70;1.60;;;;;;;11.39;100.00;101333.41;4974112;28;20387;-84
2022/10/25 06:17:32;;;;;;;3.03;1.83;;;;;;;11.39;100.00;101338.59;4974745;28;20027;-86
2022/10/25 06:19:57;;;;;;;6.30;2.20;;;;;;;11.40;100.00;101342.03;4973833;28;20085;-84
2022/10/25 06:22:23;;;;;;;3.83;2.43;;;;;;;11.39;100.00;101350.72;4974182;28;20030;-83
2022/10/25 06:24:48;;;;;;;5.43;2.40;;;;;;;11.41;100.00;101348.97;4973100;28;20038;-83
2022/10/25 06:27:13;;;;;;;4.13;2.40;;;;;;;11.39;100.00;101350.72;4974797;28;20031;-83
2022/10/25 06:29:38;;;;;;;4.93;2.60;;;;;;;11.40;100.00;101361.13;4974883;28;20023;-83
2022/10/25 06:32:04;;;;;;;7.77;3.20;;;;;;;11.40;100.00;101366.31;4973224;28;20038;-82
2022/10/25 06:34:29;;;;;;;4.90;3.10;;;;;;;11.41;100.00;101360.25;4974223;28;20102;-82
2022/10/25 06:36:54;;;;;;;4.20;2.40;;;;;;;11.42;100.00;101366.28;4973463;28;20026;-82
2022/10/25 06:39:20;;;;;;;3.53;2.50;;;;;;;11.44;100.00;101380.13;4973851;28;20043;-82
2022/10/25 06:41:45;;;;;;;3.03;2.30;;;;;;;11.44;100.00;101386.19;4974894;28;20023;-82
2022/10/25 06:44:10;;;;;;;3.23;2.50;;;;;;;11.46;100.00;101377.50;4974534;28;20380;-82
2022/10/25 06:46:37;;;;;;;4.83;2.57;;;;;;;11.50;100.00;101379.22;4973633;28;20055;-82
2022/10/25 06:49:04;;;;;;;3.95;2.50;;;;;;;11.53;100.00;101381.78;4974413;28;20027;-82
2022/10/25 06:51:31;;;;;;;2.65;2.30;;;;;;;11.54;100.00;101381.75;4974451;28;20058;-83
2022/10/25 06:53:59;;;;;;;5.07;2.60;;;;;;;11.58;100.00;101383.47;4973218;28;20023;-83
2022/10/25 06:56:26;;;;;;;2.70;2.50;;;;;;;11.59;100.00;101386.91;4974638;28;20031;-82
2022/10/25 06:58:51;;;;;;;3.50;2.30;;;;;;;11.62;100.00;101380.81;4974023;28;20550;-82
2022/10/25 07:01:18;;;;;;;4.17;2.53;;;;;;;11.65;100.00;101393.78;4973483;28;20034;-81
2022/10/25 07:03:45;;;;;;;2.35;2.00;;;;;;;11.65;100.00;101391.16;4955135;28;20027;-82
2022/10/25 07:06:20;;;;;;;4.32;2.67;;;;;;;11.66;100.00;101392.91;4954350;28;20031;-82
2022/10/25 07:08:46;;;;;;;3.25;2.40;;;;;;;11.66;100.00;101392.91;4955092;29;20147;-82
2022/10/25 07:11:18;;;;;;;5.68;2.95;;;;;;;11.65;100.00;101402.41;4955550;28;20031;-82
2022/10/25 07:13:44;;;;;;;6.47;3.40;;;;;;;11.65;100.00;101404.16;4970128;28;20026;-82
2022/10/25 07:16:12;;;;;;;4.97;2.80;;;;;;;11.65;100.00;101415.41;4973521;28;20035;-82
2022/10/25 07:18:38;;;;;;;5.90;3.20;;;;;;;11.65;100.00;101405.03;4974245;28;20027;-82
2022/10/25 07:21:10;;;;;;;4.33;2.90;;;;;;;11.69;100.00;101416.28;4973094;28;20490;-82
2022/10/25 07:23:40;;;;;;;5.45;3.00;;;;;;;11.73;100.00;101415.34;4974386;28;20031;-82
2022/10/25 07:26:06;;;;;;;4.97;3.10;;;;;;;11.76;100.00;101417.06;4973739;28;20027;-84
2022/10/25 07:28:32;;;;;;;5.03;3.40;;;;;;;11.80;100.00;101422.22;4972915;28;20038;-86
2022/10/25 07:30:57;;;;;;;4.97;3.30;;;;;;;11.83;100.00;101427.38;4973876;28;20027;-84
2022/10/25 07:33:22;;;;;;;8.27;3.37;;;;;;;11.87;100.00;101425.63;4973662;28;20384;-84
2022/10/25 07:35:49;;;;;;;4.53;3.00;;;;;;;11.90;100.00;101426.44;4972835;28;20131;-84
2022/10/25 07:38:15;;;;;;;5.35;3.13;;;;;;;11.94;100.00;101435.06;4973817;28;20043;-83
2022/10/25 07:40:41;;;;;;;4.63;3.10;;;;;;;11.97;100.00;101432.44;4973934;28;20022;-83
2022/10/25 07:43:07;;;;;;;3.77;2.67;;;;;;;12.01;100.00;101443.69;4973236;28;20358;-83
2022/10/25 07:45:32;;;;;;;2.92;2.55;;;;;;;12.05;100.00;101442.75;4973764;28;20472;-83
2022/10/25 07:47:59;;;;;;;4.40;2.70;;;;;;;12.06;100.00;101434.06;4973568;28;20058;-84
2022/10/25 07:50:24;;;;;;;3.85;2.83;;;;;;;12.14;100.00;101433.97;4973135;28;20459;-85
2022/10/25 07:52:49;;;;;;;4.37;2.87;;;;;;;12.17;100.00;101437.41;4973445;28;20031;-84
2022/10/25 07:55:15;;;;;;;3.37;2.40;;;;;;;12.24;100.00;101437.34;4973801;28;20138;-87
2022/10/25 07:57:40;;;;;;;5.03;2.90;;;;;;;12.30;100.00;101447.66;4972530;28;20062;-85
2022/10/25 08:00:08;;;;;;;5.37;3.03;;;;;;;12.35;100.00;101448.47;4972831;28;20035;-85
2022/10/25 08:02:33;;;;;;;5.00;3.35;;;;;;;12.39;100.00;101450.13;4973187;28;20031;-84
2022/10/25 08:04:59;;;;;;;4.30;2.80;;;;;;;12.42;100.00;101455.31;4973412;28;20070;-84
2022/10/25 08:07:24;;;;;;;6.67;3.67;;;;;;;12.44;100.00;101447.50;4973765;28;20058;-83
2022/10/25 08:09:49;;;;;;;4.87;3.07;;;;;;;12.45;100.00;101455.28;4971157;28;20049;-84
2022/10/25 08:12:15;;;;;;;5.97;3.50;;;;;;;12.49;100.00;101458.69;4973838;28;20101;-83
2022/10/25 08:14:40;;;;;;;3.40;2.80;;;;;;;12.53;100.00;101457.78;4973637;28;20490;-84
2022/10/25 08:17:05;;;;;;;5.10;2.70;;;;;;;12.58;100.00;101465.53;4972643;28;20027;-84
2022/10/25 08:19:31;;;;;;;6.00;3.40;;;;;;;12.63;100.00;101467.19;4973502;28;20046;-84
2022/10/25 08:21:56;;;;;;;7.00;3.37;;;;;;;12.66;100.00;101459.34;4972907;28;20384;-84
2022/10/25 08:24:22;;;;;;;5.82;3.13;;;;;;;12.71;100.00;101469.69;4972850;28;20054;-84
2022/10/25 08:26:47;;;;;;;7.67;3.60;;;;;;;12.76;100.00;101470.47;4973563;28;20114;-84
2022/10/25 08:29:13;;;;;;;9.70;4.27;;;;;;;12.76;100.00;101473.06;4973135;28;20125;-84
2022/10/25 08:31:38;;;;;;;6.30;3.50;;;;;;;12.78;100.00;101466.09;4972544;28;20023;-84
2022/10/25 08:34:03;;;;;;;5.23;3.30;;;;;;;12.83;100.00;101466.88;4973092;28;20035;-84
2022/10/25 08:36:29;;;;;;;3.07;2.53;;;;;;;12.87;100.00;101475.53;4973520;28;20507;-84
2022/10/25 08:38:54;;;;;;;3.97;2.80;;;;;;;12.92;100.00;101478.06;4975149;28;20039;-84
2022/10/25 08:41:39;;;;;;;4.67;2.70;;;;;;;12.97;100.00;101473.63;4976187;28;20077;-85
2022/10/25 08:44:10;;;;;;;6.77;3.93;;;;;;;13.00;100.00;101473.59;4976154;28;20043;-85
2022/10/25 08:47:08;;;;;;;4.68;3.35;;;;;;;13.06;100.00;101472.66;4975995;28;20034;-84
2022/10/25 08:49:48;;;;;;;6.88;3.70;;;;;;;13.11;100.00;101479.50;4973462;28;20047;-84
2022/10/25 08:52:39;;;;;;;6.93;3.30;;;;;;;13.12;100.00;101478.63;4975087;28;20027;-84
2022/10/25 08:55:30;;;;;;;6.70;3.45;;;;;;;13.16;100.00;101479.44;4975798;28;20043;-84
2022/10/25 08:57:55;;;;;;;5.70;3.33;;;;;;;13.24;100.00;101479.31;4975645;28;20050;-84
2022/10/25 09:00:23;;;;;;;7.73;3.60;;;;;;;13.34;100.00;101478.28;4975767;28;20048;-84
2022/10/25 09:02:56;;;;;;;5.13;3.20;;;;;;;13.49;100.00;101490.22;4976644;28;20440;-84
2022/10/25 09:05:40;;;;;;;3.83;2.85;;;;;;;13.61;100.00;101497.00;4975850;28;20480;-85
2022/10/25 09:08:50;;;;;;;6.57;2.92;;;;;;;13.67;100.00;101496.03;4975417;28;20038;-85
2022/10/25 09:11:24;;;;;;;3.33;2.70;;;;;;;13.80;100.00;101496.66;4965768;28;20039;-84
2022/10/25 09:13:58;;;;;;;7.53;2.90;;;;;;;13.94;100.00;101496.38;4975392;28;20061;-85
2022/10/25 09:16:59;;;;;;;5.70;2.88;;;;;;;13.98;99.00;101501.50;4976211;28;20395;-85
2022/10/25 09:19:38;;;;;;;7.75;3.03;;;;;;;13.99;98.60;101511.06;4969249;28;20039;-85
2022/10/25 09:22:32;;;;;;;6.15;3.05;;;;;;;14.03;98.76;101510.13;4975404;28;20045;-85
2022/10/25 09:25:15;;;;;;;7.55;3.28;;;;;;;14.04;97.13;101514.47;4959929;28;20038;-85
2022/10/25 09:27:57;;;;;;;7.60;3.53;;;;;;;13.99;97.94;101524.09;4975404;28;20031;-84
2022/10/25 09:30:23;;;;;;;4.68;3.20;;;;;;;14.02;98.33;101523.19;4975855;28;20064;-87
2022/10/25 09:32:53;;;;;;;5.73;3.40;;;;;;;14.08;98.35;101523.09;4976213;28;20115;-84
2022/10/25 09:35:25;;;;;;;4.68;3.10;;;;;;;14.11;98.55;101528.25;4974681;28;20027;-83
2022/10/25 09:37:54;;;;;;;5.93;3.33;;;;;;;14.06;96.86;101522.25;4975430;28;20047;-83
2022/10/25 09:40:32;;;;;;;4.15;2.65;;;;;;;14.08;97.77;101530.03;4974914;28;20061;-83
2022/10/25 09:43:05;;;;;;;4.88;3.10;;;;;;;14.08;97.94;101525.69;4974749;28;20023;-83
2022/10/25 09:45:39;;;;;;;4.15;2.70;;;;;;;14.13;97.60;101526.44;4975852;28;20059;-84
2022/10/25 09:48:12;;;;;;;4.88;3.05;;;;;;;14.23;98.37;101521.91;4966317;28;20078;-83
2022/10/25 09:50:49;;;;;;;4.75;2.67;;;;;;;14.32;98.06;101521.72;4956867;28;20039;-84
2022/10/25 09:53:18;;;;;;;7.97;3.10;;;;;;;14.35;95.90;101531.28;4960291;28;20030;-83
2022/10/25 09:56:00;;;;;;;5.30;2.80;;;;;;;14.35;97.05;101526.91;4964861;28;20031;-84
2022/10/25 09:58:30;;;;;;;5.40;2.90;;;;;;;14.33;96.05;101539.13;4975098;28;20066;-84
2022/10/25 10:00:59;;;;;;;5.10;3.00;;;;;;;14.32;96.01;101531.34;4973730;28;20110;-84
2022/10/25 10:03:30;;;;;;;3.42;2.40;;;;;;;14.30;96.46;101539.19;4972701;28;20030;-84
2022/10/25 10:06:01;;;;;;;5.78;2.55;;;;;;;14.27;95.56;101536.66;4973747;28;20042;-84
2022/10/25 10:08:30;;;;;;;3.00;2.30;;;;;;;14.26;96.24;101542.75;4973302;28;20026;-83
2022/10/25 10:10:55;;;;;;;3.13;2.10;;;;;;;14.27;96.23;101543.59;4972382;28;20110;-82
2022/10/25 10:13:34;;;;;;;7.93;3.00;;;;;;;14.23;95.24;101539.34;4973482;28;20054;-84
2022/10/25 10:16:04;;;;;;;4.22;2.40;;;;;;;14.28;96.41;101546.19;4973213;28;20054;-83
2022/10/25 10:18:33;;;;;;;6.40;2.60;;;;;;;14.32;95.73;101547.84;4973132;28;20503;-83
2022/10/25 10:21:10;;;;;;;4.03;2.20;;;;;;;14.39;95.49;101545.13;4974560;28;20480;-83
2022/10/25 10:23:52;;;;;;;6.93;2.63;;;;;;;14.46;95.38;101551.94;4974185;28;20487;-84
2022/10/25 10:26:30;;;;;;;4.95;2.42;;;;;;;14.49;95.50;101546.66;4973653;28;20097;-83
2022/10/25 10:29:12;;;;;;;5.70;2.75;;;;;;;14.47;93.44;101554.50;4974167;28;20101;-83
2022/10/25 10:31:41;;;;;;;3.97;2.35;;;;;;;14.46;93.50;101554.53;4973643;28;20026;-83
2022/10/25 10:34:25;;;;;;;4.20;2.20;;;;;;;14.48;94.40;101558.84;4974164;28;20054;-83
2022/10/25 10:37:17;;;;;;;2.05;1.80;;;;;;;14.47;94.38;101558.88;4974242;28;20443;-83
2022/10/25 10:39:48;;;;;;;2.85;1.90;;;;;;;14.46;94.45;101558.03;4973319;28;20047;-83
2022/10/25 10:42:19;;;;;;;2.58;2.00;;;;;;;14.47;94.71;101561.50;4974342;28;20043;-82
2022/10/25 10:45:03;;;;;;;4.35;2.20;;;;;;;14.46;94.26;101558.03;4973821;28;20027;-83
2022/10/25 10:47:34;;;;;;;6.18;2.42;;;;;;;14.45;93.47;101571.09;4974438;28;20114;-84
2022/10/25 10:50:01;;;;;;;3.47;2.05;;;;;;;14.44;94.49;101566.78;4974192;28;20023;-83
2022/10/25 10:52:35;;;;;;;;;;;;;;;14.44;94.13;101567.66;4973998;28;20046;-83
2022/10/25 10:55:01;;;;;;;2.78;1.90;;;;;;;14.42;94.87;101574.66;4974025;28;20008;-84
2022/10/25 10:57:32;;;;;;;3.20;1.80;;;;;;;14.44;95.09;101575.47;4974071;28;20071;-83
2022/10/25 10:59:59;;;;;;;1.83;1.40;;;;;;;14.46;95.14;101575.44;4972844;28;20039;-83
2022/10/25 11:02:31;;;;;;;3.65;2.00;;;;;;;14.49;94.11;101565.78;4974231;28;20037;-83
2022/10/25 11:04:57;;;;;;;2.97;1.90;;;;;;;14.62;94.32;101568.16;4973881;28;20479;-83
2022/10/25 11:07:30;;;;;;;6.90;2.43;;;;;;;14.70;92.77;101573.25;4973266;28;20054;-83
2022/10/25 11:10:19;;;;;;;6.97;2.38;;;;;;;14.77;93.71;101569.59;4974078;28;20029;-84
2022/10/25 11:12:44;;;;;;;4.40;2.33;;;;;;;14.79;93.71;101571.31;4973712;28;20055;-83
2022/10/25 11:15:13;;;;;;;3.47;2.10;;;;;;;14.83;94.42;101567.72;4973588;28;20082;-83
2022/10/25 11:17:49;;;;;;;2.05;1.60;;;;;;;14.89;93.56;101563.28;4973714;28;20468;-83
2022/10/25 11:20:29;;;;;;;2.80;1.90;;;;;;;14.92;93.04;101564.06;4973467;28;20034;-83
2022/10/25 11:23:07;;;;;;;4.97;2.10;;;;;;;14.91;92.28;101567.56;4973522;28;20038;-84
2022/10/25 11:25:55;;;;;;;2.95;2.00;;;;;;;14.96;92.77;101576.19;4973948;28;20050;-84
2022/10/25 11:28:39;;;;;;;2.70;1.90;;;;;;;15.05;93.56;101569.88;4973104;28;20385;-84
2022/10/25 11:31:29;;;;;;;2.25;1.58;;;;;;;15.15;92.91;101565.31;4973750;28;20058;-83